Time;durP1;ratioP1;P1;durP2;ratioP2;P2;SDS_P1;SDS_P2;PMS_P1;PMS_P2;Temp;Humidity;BMP_temperature;BMP_pressure;BME280_temperature;BME280_humidity;BME280_pressure;Samples;Min_cycle;Max_cycle;Signal;HPM_P1;HPM_P2
2023/07/11 00:01:01;;;;;;;10.82;9.73;;;;;;;21.01;100.00;99740.56;5092275;28;20526;-80
2023/07/11 00:03:26;;;;;;;10.77;9.80;;;;;;;21.00;100.00;99742.38;5092482;28;20107;-80
2023/07/11 00:06:00;;;;;;;10.98;9.02;;;;;;;20.99;100.00;99747.81;5092543;28;20417;-80
2023/07/11 00:08:26;;;;;;;10.52;9.52;;;;;;;20.83;100.00;99721.84;5092534;28;20055;-80
2023/07/11 00:10:51;;;;;;;11.48;9.50;;;;;;;20.74;100.00;99714.72;5092378;28;20063;-80
2023/07/11 00:13:17;;;;;;;10.02;8.75;;;;;;;20.79;100.00;99729.22;5092148;28;20031;-80
2023/07/11 00:15:42;;;;;;;11.20;10.13;;;;;;;20.66;100.00;99721.53;5092285;28;20458;-80
2023/07/11 00:18:07;;;;;;;11.90;10.57;;;;;;;20.77;100.00;99739.09;5092390;28;20367;-80
2023/07/11 00:20:33;;;;;;;11.98;10.65;;;;;;;20.70;100.00;99748.56;5092324;28;20024;-80
2023/07/11 00:22:58;;;;;;;10.65;9.65;;;;;;;20.56;100.00;99738.31;5092397;28;20048;-80
2023/07/11 00:25:23;;;;;;;11.13;9.82;;;;;;;20.49;100.00;99727.44;5092195;28;20422;-80
2023/07/11 00:27:49;;;;;;;11.75;10.55;;;;;;;20.30;100.00;99725.50;5092327;28;20532;-80
2023/07/11 00:30:14;;;;;;;12.73;10.25;;;;;;;20.57;100.00;99767.31;5092077;28;20036;-80
2023/07/11 00:32:39;;;;;;;11.65;10.55;;;;;;;20.51;100.00;99759.88;5092223;28;20028;-80
2023/07/11 00:35:05;;;;;;;12.40;10.13;;;;;;;20.48;100.00;99757.53;5092366;28;20115;-80
2023/07/11 00:37:30;;;;;;;12.52;9.80;;;;;;;20.35;100.00;99746.28;5092328;28;20051;-80
2023/07/11 00:39:56;;;;;;;10.70;9.60;;;;;;;20.43;100.00;99760.50;5092087;28;20024;-80
2023/07/11 00:42:21;;;;;;;11.40;10.20;;;;;;;20.17;100.00;99731.00;5091775;28;20152;-80
2023/07/11 00:45:03;;;;;;;11.65;9.70;;;;;;;20.22;100.00;99740.34;5091993;28;20059;-80
2023/07/11 00:47:30;;;;;;;12.32;10.00;;;;;;;20.30;100.00;99757.25;5092026;28;20090;-80
2023/07/11 00:50:07;;;;;;;11.50;9.52;;;;;;;20.26;100.00;99757.63;5091807;28;20024;-80
2023/07/11 00:52:36;;;;;;;11.13;9.77;;;;;;;20.30;100.00;99762.53;5092140;28;20021;-80
2023/07/11 00:55:08;;;;;;;13.65;10.63;;;;;;;20.11;100.00;99743.94;5092020;28;20077;-80
2023/07/11 00:57:35;;;;;;;;;;;;;;;20.11;100.00;99765.09;5092194;28;20424;-80
2023/07/11 01:00:01;;;;;;;10.93;9.13;;;;;;;20.03;100.00;99771.00;5092068;28;19908;-80
2023/07/11 01:02:28;;;;;;;10.60;8.70;;;;;;;19.96;100.00;99745.22;5092022;28;20107;-80
2023/07/11 01:04:54;;;;;;;10.50;9.18;;;;;;;20.03;100.00;99770.19;5091857;28;20028;-80
2023/07/11 01:07:27;;;;;;;10.65;9.57;;;;;;;20.07;100.00;99776.88;5091463;28;20482;-80
2023/07/11 01:09:53;;;;;;;10.88;9.43;;;;;;;20.07;100.00;99771.59;5091887;28;20077;-80
2023/07/11 01:12:20;;;;;;;12.48;10.07;;;;;;;19.82;100.00;99726.06;5091728;28;20475;-80
2023/07/11 01:14:48;;;;;;;10.80;9.70;;;;;;;20.08;100.00;99770.63;5091797;28;20108;-80
2023/07/11 01:17:22;;;;;;;13.77;10.23;;;;;;;19.97;100.00;99768.88;5091586;28;20027;-80
2023/07/11 01:19:48;;;;;;;10.90;9.80;;;;;;;19.81;100.00;99750.00;5090548;28;20035;-80
2023/07/11 01:22:13;;;;;;;10.90;9.80;;;;;;;19.64;100.00;99728.44;5091372;28;20502;-80
2023/07/11 01:24:39;;;;;;;10.57;9.52;;;;;;;19.84;100.00;99762.94;5092023;28;20024;-80
2023/07/11 01:27:04;;;;;;;11.52;10.32;;;;;;;19.60;100.00;99732.28;5092055;28;20024;-80
2023/07/11 01:29:29;;;;;;;12.98;9.85;;;;;;;19.75;100.00;99753.13;5091731;28;20035;-80
2023/07/11 01:31:55;;;;;;;10.82;9.80;;;;;;;19.65;100.00;99735.41;5091845;28;20050;-80
2023/07/11 01:34:20;;;;;;;18.63;10.63;;;;;;;19.65;100.00;99753.91;5091653;28;20028;-80
2023/07/11 01:36:46;;;;;;;10.35;9.23;;;;;;;19.55;100.00;99747.69;5091302;28;20655;-80
2023/07/11 01:39:11;;;;;;;11.43;10.18;;;;;;;19.58;100.00;99747.41;5091563;28;20024;-79
2023/07/11 01:41:36;;;;;;;10.73;9.63;;;;;;;19.63;100.00;99749.69;5091744;28;20028;-80
2023/07/11 01:44:03;;;;;;;10.48;9.38;;;;;;;19.59;100.00;99746.47;5091889;28;20027;-80
2023/07/11 01:46:28;;;;;;;9.50;8.60;;;;;;;19.60;100.00;99753.41;5094925;28;20032;-80
2023/07/11 01:48:54;;;;;;;9.82;8.82;;;;;;;19.56;100.00;99752.00;5095220;28;20031;-80
2023/07/11 01:51:19;;;;;;;10.32;9.32;;;;;;;19.65;100.00;99767.09;5094885;28;20024;-80
2023/07/11 01:53:45;;;;;;;11.25;9.95;;;;;;;19.66;100.00;99767.94;5095190;28;20024;-80
2023/07/11 01:56:10;;;;;;;10.13;9.23;;;;;;;19.49;100.00;99749.97;5094962;28;20031;-80
2023/07/11 01:58:38;;;;;;;11.02;9.90;;;;;;;19.47;100.00;99746.59;5095190;28;20493;-80
2023/07/11 02:01:03;;;;;;;11.13;9.88;;;;;;;19.57;100.00;99758.09;5095059;28;20501;-80
2023/07/11 02:03:28;;;;;;;11.55;10.45;;;;;;;19.45;100.00;99742.28;5094654;28;20044;-80
2023/07/11 02:05:55;;;;;;;12.45;11.15;;;;;;;19.53;100.00;99761.97;5094880;28;20032;-80
2023/07/11 02:08:20;;;;;;;12.68;11.32;;;;;;;19.58;100.00;99771.19;5094969;28;20020;-80
2023/07/11 02:10:46;;;;;;;11.40;10.20;;;;;;;19.59;100.00;99769.38;5095224;28;20028;-80
2023/07/11 02:13:11;;;;;;;11.75;10.57;;;;;;;19.50;100.00;99773.59;5094667;28;20027;-80
2023/07/11 02:15:37;;;;;;;10.55;9.50;;;;;;;19.47;100.00;99765.09;5094703;28;20036;-80
2023/07/11 02:18:02;;;;;;;13.98;11.02;;;;;;;19.38;100.00;99772.81;5094671;28;20058;-80
2023/07/11 02:20:28;;;;;;;12.52;10.75;;;;;;;19.22;100.00;99742.50;5094300;28;20416;-79
2023/07/11 02:22:53;;;;;;;12.93;11.50;;;;;;;19.18;100.00;99741.91;5094744;28;20020;-80
2023/07/11 02:25:18;;;;;;;11.38;10.20;;;;;;;19.12;100.00;99748.50;5094262;28;20032;-79
2023/07/11 02:27:44;;;;;;;11.25;9.95;;;;;;;19.21;100.00;99773.31;5094569;28;20032;-80
2023/07/11 02:30:09;;;;;;;12.23;9.98;;;;;;;19.26;100.00;99778.28;5094235;28;20020;-79
2023/07/11 02:32:35;;;;;;;9.93;8.93;;;;;;;19.24;100.00;99780.19;5094583;28;20070;-80
2023/07/11 02:35:00;;;;;;;12.27;9.77;;;;;;;19.24;100.00;99778.38;5094087;28;20028;-79
2023/07/11 02:37:26;;;;;;;12.43;9.68;;;;;;;19.16;100.00;99757.84;5093743;28;20048;-80
2023/07/11 02:39:51;;;;;;;13.55;10.20;;;;;;;19.23;100.00;99767.94;5094194;28;20020;-80
2023/07/11 02:42:17;;;;;;;11.27;10.07;;;;;;;19.24;100.00;99781.00;5094238;28;20114;-79
2023/07/11 02:44:42;;;;;;;11.98;9.63;;;;;;;19.20;100.00;99776.94;5093948;28;20024;-79
2023/07/11 02:47:08;;;;;;;11.07;9.93;;;;;;;18.97;100.00;99735.72;5094082;28;20032;-79
2023/07/11 02:49:38;;;;;;;11.32;10.07;;;;;;;19.25;100.00;99779.19;5093566;28;20027;-80
2023/07/11 02:52:04;;;;;;;12.48;9.95;;;;;;;19.22;100.00;99772.38;5093996;28;20028;-79
2023/07/11 02:54:29;;;;;;;11.50;10.30;;;;;;;19.09;100.00;99750.56;5093833;28;20024;-80
2023/07/11 02:56:55;;;;;;;15.35;10.18;;;;;;;19.18;100.00;99760.41;5094121;28;20024;-79
2023/07/11 02:59:22;;;;;;;11.30;10.13;;;;;;;19.16;100.00;99768.41;5093722;28;20058;-79
2023/07/11 03:01:47;;;;;;;10.45;9.43;;;;;;;19.07;100.00;99753.31;5093991;28;20028;-79
2023/07/11 03:04:13;;;;;;;11.57;9.57;;;;;;;19.17;100.00;99779.81;5093875;28;20497;-79
2023/07/11 03:06:38;;;;;;;10.93;9.70;;;;;;;19.09;100.00;99767.25;5093744;28;20406;-80
2023/07/11 03:09:04;;;;;;;11.48;10.18;;;;;;;19.17;100.00;99785.09;5093781;28;20024;-80
2023/07/11 03:11:30;;;;;;;11.00;9.70;;;;;;;19.19;100.00;99776.09;5093574;28;20028;-80
2023/07/11 03:13:55;;;;;;;10.85;9.75;;;;;;;19.18;100.00;99786.78;5093610;28;20103;-80
2023/07/11 03:16:20;;;;;;;12.32;10.20;;;;;;;19.15;100.00;99785.22;5093428;28;20380;-80
2023/07/11 03:18:46;;;;;;;11.48;9.55;;;;;;;19.13;100.00;99783.66;5093307;28;20479;-80
2023/07/11 03:21:11;;;;;;;10.20;9.20;;;;;;;19.16;100.00;99789.53;5092255;28;20028;-80
2023/07/11 03:23:36;;;;;;;10.63;9.63;;;;;;;19.09;100.00;99776.97;5093446;28;20032;-80
2023/07/11 03:26:02;;;;;;;11.95;10.60;;;;;;;19.24;100.00;99796.84;5093347;28;20024;-80
2023/07/11 03:28:27;;;;;;;13.43;9.80;;;;;;;19.22;100.00;99790.88;5093095;28;20057;-80
2023/07/11 03:30:52;;;;;;;10.32;9.27;;;;;;;19.30;100.00;99795.50;5093201;28;20455;-80
2023/07/11 03:33:18;;;;;;;10.65;9.50;;;;;;;19.30;100.00;99800.78;5092910;28;20486;-80
2023/07/11 03:35:52;;;;;;;11.07;9.70;;;;;;;19.14;100.00;99785.38;5093614;28;20161;-80
2023/07/11 03:38:18;;;;;;;10.18;9.05;;;;;;;19.16;100.00;99792.19;5093050;28;20061;-80
2023/07/11 03:40:44;;;;;;;10.57;9.48;;;;;;;19.25;100.00;99810.88;5093040;28;20024;-80
2023/07/11 03:43:09;;;;;;;10.57;9.13;;;;;;;19.15;100.00;99795.78;5092968;28;20024;-80
2023/07/11 03:45:34;;;;;;;10.02;9.05;;;;;;;19.29;100.00;99809.69;5092630;28;20528;-80
2023/07/11 03:48:00;;;;;;;11.05;9.57;;;;;;;19.21;100.00;99794.44;5093140;28;20541;-80
2023/07/11 03:50:25;;;;;;;10.73;9.50;;;;;;;19.24;100.00;99798.66;5092828;28;20016;-80
2023/07/11 03:52:50;;;;;;;10.82;9.57;;;;;;;19.19;100.00;99799.88;5092920;28;20107;-79
2023/07/11 03:55:16;;;;;;;11.07;8.80;;;;;;;19.25;100.00;99792.41;5092676;28;20140;-80
2023/07/11 03:57:41;;;;;;;10.45;9.45;;;;;;;19.42;100.00;99829.72;5092764;28;20032;-80
2023/07/11 04:00:07;;;;;;;10.73;9.10;;;;;;;19.48;100.00;99828.38;5092612;28;20487;-79
2023/07/11 04:02:32;;;;;;;10.93;8.90;;;;;;;19.53;100.00;99828.00;5092346;28;20054;-80
2023/07/11 04:04:58;;;;;;;12.55;10.07;;;;;;;19.50;100.00;99810.59;5092739;28;20592;-80
2023/07/11 04:07:23;;;;;;;11.32;9.15;;;;;;;19.57;100.00;99822.34;5092065;28;20464;-80
2023/07/11 04:09:48;;;;;;;10.48;9.40;;;;;;;19.59;100.00;99827.50;5092663;28;20460;-80
2023/07/11 04:12:14;;;;;;;9.65;8.68;;;;;;;19.64;100.00;99825.38;5092736;28;20027;-81
2023/07/11 04:14:39;;;;;;;8.98;8.13;;;;;;;19.77;100.00;99820.75;5092270;28;20020;-80
2023/07/11 04:17:05;;;;;;;9.98;8.27;;;;;;;19.91;100.00;99794.03;5092365;28;20076;-81
2023/07/11 04:19:30;;;;;;;9.55;8.65;;;;;;;20.56;100.00;99828.28;5092640;28;20626;-81
2023/07/11 04:21:56;;;;;;;9.50;8.60;;;;;;;20.96;100.00;99822.22;5092383;28;20031;-81
2023/07/11 04:24:21;;;;;;;10.13;8.18;;;;;;;21.72;96.66;99828.69;5092361;28;20406;-81
2023/07/11 04:26:46;;;;;;;9.02;8.13;;;;;;;22.88;91.20;99830.34;5092372;28;20035;-81
2023/07/11 04:29:11;;;;;;;11.38;7.82;;;;;;;24.48;83.84;99832.38;5092348;28;20024;-81
2023/07/11 04:31:37;;;;;;;9.05;8.10;;;;;;;25.76;79.06;99834.06;5092049;28;20114;-81
2023/07/11 04:34:02;;;;;;;8.35;7.53;;;;;;;26.21;76.22;99819.44;5092388;28;20464;-81
2023/07/11 04:36:28;;;;;;;8.60;7.57;;;;;;;26.08;76.21;99830.63;5092119;28;20130;-81
2023/07/11 04:38:53;;;;;;;8.00;7.28;;;;;;;25.72;77.00;99850.59;5092358;28;20020;-81
2023/07/11 04:41:19;;;;;;;8.88;7.57;;;;;;;25.27;78.46;99849.13;5092088;28;20052;-81
2023/07/11 04:43:44;;;;;;;10.30;7.93;;;;;;;24.77;79.40;99831.19;5092185;28;20024;-81
2023/07/11 04:46:10;;;;;;;9.23;7.22;;;;;;;24.88;80.09;99850.41;5092126;28;20491;-81
2023/07/11 04:48:35;;;;;;;8.43;6.90;;;;;;;25.35;78.63;99851.81;5091830;28;20048;-81
2023/07/11 04:51:03;;;;;;;8.20;6.70;;;;;;;26.35;74.66;99840.13;5092090;28;20040;-81
2023/07/11 04:53:30;;;;;;;7.05;6.45;;;;;;;27.75;70.90;99841.34;5091866;28;20479;-81
2023/07/11 04:56:01;;;;;;;8.77;7.88;;;;;;;28.78;67.97;99859.56;5092132;28;20063;-82
2023/07/11 04:58:29;;;;;;;7.40;6.70;;;;;;;28.95;66.90;99844.13;5091871;28;20448;-81
2023/07/11 05:01:02;;;;;;;8.98;6.97;;;;;;;28.47;67.46;99862.38;5090684;28;20032;-81
2023/07/11 05:03:29;;;;;;;8.85;6.43;;;;;;;27.47;69.79;99832.94;5091979;28;20078;-81
2023/07/11 05:05:55;;;;;;;6.50;5.90;;;;;;;27.19;71.39;99864.69;5091772;28;20020;-81
2023/07/11 05:08:20;;;;;;;7.30;6.60;;;;;;;27.00;72.05;99873.91;5091869;28;20365;-81
2023/07/11 05:11:07;;;;;;;8.15;7.20;;;;;;;26.68;72.85;99858.81;5092164;28;20028;-81
2023/07/11 05:13:34;;;;;;;7.38;6.00;;;;;;;27.31;71.79;99863.31;5091530;28;20028;-81
2023/07/11 05:16:00;;;;;;;6.38;5.78;;;;;;;28.33;68.51;99844.41;5092481;28;20028;-81
2023/07/11 05:18:26;;;;;;;8.23;6.07;;;;;;;28.42;67.49;99870.13;5091718;28;20472;-81
2023/07/11 05:20:55;;;;;;;8.43;6.00;;;;;;;28.39;67.04;99864.28;5094977;28;20035;-81
2023/07/11 05:23:23;;;;;;;6.38;5.78;;;;;;;27.71;69.24;99871.28;5095665;28;20032;-81
2023/07/11 05:25:48;;;;;;;7.00;6.20;;;;;;;27.64;70.13;99872.97;5095595;28;20020;-81
2023/07/11 05:28:15;;;;;;;7.60;5.78;;;;;;;27.34;70.52;99854.06;5095653;28;20062;-81
2023/07/11 05:30:40;;;;;;;6.32;5.68;;;;;;;27.15;71.35;99871.38;5095479;28;20023;-81
2023/07/11 05:33:05;;;;;;;6.75;5.95;;;;;;;27.49;70.99;99871.06;5095535;28;20020;-81
2023/07/11 05:35:51;;;;;;;6.72;5.82;;;;;;;27.53;69.43;99868.88;5095319;28;20047;-81
2023/07/11 05:38:16;;;;;;;7.05;5.82;;;;;;;26.80;71.06;99870.81;5110475;28;20047;-81
2023/07/11 05:40:42;;;;;;;8.40;6.25;;;;;;;26.51;72.83;99859.84;5095260;28;20024;-81
2023/07/11 05:43:07;;;;;;;6.50;6.00;;;;;;;26.35;73.18;99879.34;5095721;28;20032;-81
2023/07/11 05:45:33;;;;;;;7.75;5.40;;;;;;;26.05;73.37;99864.84;5095031;28;20452;-81
2023/07/11 05:47:59;;;;;;;5.90;5.30;;;;;;;26.07;74.37;99868.97;5095241;28;20483;-81
2023/07/11 05:50:26;;;;;;;6.55;5.95;;;;;;;25.82;74.63;99870.78;5095071;28;20482;-81
2023/07/11 05:52:52;;;;;;;6.55;5.80;;;;;;;25.67;75.64;99852.91;5095151;28;20028;-81
2023/07/11 05:55:17;;;;;;;8.02;5.72;;;;;;;25.82;74.60;99868.13;5095167;28;20030;-81
2023/07/11 05:57:42;;;;;;;6.97;6.10;;;;;;;25.88;74.35;99866.66;5095111;28;20027;-81
2023/07/11 06:00:09;;;;;;;6.20;5.60;;;;;;;25.87;74.58;99865.81;5095160;28;20020;-81
2023/07/11 06:02:35;;;;;;;5.97;5.32;;;;;;;25.91;74.27;99847.63;5094728;28;20498;-81
2023/07/11 06:05:01;;;;;;;6.90;6.25;;;;;;;26.22;73.08;99869.16;5094903;28;20024;-82
2023/07/11 06:07:28;;;;;;;6.35;5.25;;;;;;;26.23;72.64;99883.34;5094634;28;20089;-82
2023/07/11 06:09:54;;;;;;;6.53;5.93;;;;;;;25.71;72.85;99864.94;5094937;28;20028;-81
2023/07/11 06:12:19;;;;;;;6.03;5.20;;;;;;;25.69;74.16;99862.41;5094971;28;20035;-82
2023/07/11 06:14:44;;;;;;;5.82;5.13;;;;;;;25.90;73.83;99866.47;5094285;28;20039;-82
2023/07/11 06:17:10;;;;;;;6.05;5.45;;;;;;;26.15;72.81;99875.34;5094777;28;20024;-82
2023/07/11 06:19:35;;;;;;;6.32;5.72;;;;;;;26.26;72.04;99875.00;5094434;28;20365;-82
2023/07/11 06:22:01;;;;;;;5.95;5.35;;;;;;;26.45;71.94;99879.19;5094332;28;20076;-82
2023/07/11 06:24:26;;;;;;;5.05;4.65;;;;;;;26.91;71.91;99876.78;5094376;28;20031;-82
2023/07/11 06:26:52;;;;;;;6.93;5.78;;;;;;;27.26;69.82;99864.81;5094375;28;20028;-82
2023/07/11 06:29:17;;;;;;;6.63;6.00;;;;;;;27.23;68.86;99865.19;5094852;28;20055;-82
2023/07/11 06:31:45;;;;;;;6.00;5.43;;;;;;;27.02;69.81;99876.44;5093922;28;20020;-82
2023/07/11 06:34:10;;;;;;;6.95;4.97;;;;;;;26.74;70.38;99874.13;5094274;28;20065;-82
2023/07/11 06:36:35;;;;;;;5.35;4.72;;;;;;;26.58;71.12;99874.16;5094062;28;20048;-81
2023/07/11 06:39:01;;;;;;;7.10;5.15;;;;;;;26.60;70.92;99872.19;5094463;28;20020;-82
2023/07/11 06:41:28;;;;;;;4.90;4.45;;;;;;;27.14;70.24;99863.53;5094095;28;20062;-82
2023/07/11 06:43:54;;;;;;;6.35;5.75;;;;;;;27.68;67.46;99871.63;5093395;28;20036;-82
2023/07/11 06:46:19;;;;;;;5.50;4.85;;;;;;;27.98;67.25;99852.06;5092564;28;20024;-82
2023/07/11 06:48:45;;;;;;;8.55;4.95;;;;;;;29.42;64.28;99863.50;5092533;28;20031;-82
2023/07/11 06:51:10;;;;;;;4.53;4.13;;;;;;;30.68;60.88;99848.59;5092512;28;20028;-82
2023/07/11 06:53:35;;;;;;;5.30;4.80;;;;;;;31.03;59.18;99868.28;5093379;28;20440;-82
2023/07/11 06:56:01;;;;;;;4.85;4.07;;;;;;;31.66;57.64;99873.53;5093204;28;20032;-82
2023/07/11 06:58:27;;;;;;;5.35;4.55;;;;;;;31.70;56.70;99853.25;5093882;28;20035;-82
2023/07/11 07:00:58;;;;;;;5.30;4.80;;;;;;;31.97;56.29;99854.13;5094371;28;20036;-82
2023/07/11 07:03:24;;;;;;;4.80;4.40;;;;;;;32.61;55.20;99871.56;5093932;28;20024;-82
2023/07/11 07:05:51;;;;;;;5.38;4.88;;;;;;;33.14;54.40;99871.47;5092379;28;20085;-80
2023/07/11 07:08:18;;;;;;;4.43;4.03;;;;;;;33.30;54.55;99878.28;5094003;28;20028;-81
2023/07/11 07:10:45;;;;;;;6.78;4.38;;;;;;;34.37;51.92;99882.03;5093413;28;20028;-82
2023/07/11 07:13:11;;;;;;;4.85;4.35;;;;;;;35.55;50.05;99872.91;5093497;28;20441;-83
2023/07/11 07:15:36;;;;;;;4.03;3.67;;;;;;;34.58;49.48;99878.94;5091986;28;20066;-82
2023/07/11 07:18:01;;;;;;;4.85;3.58;;;;;;;33.00;51.41;99854.53;5093507;28;20024;-82
2023/07/11 07:20:27;;;;;;;4.03;3.60;;;;;;;33.69;52.08;99863.78;5093024;28;20051;-82
2023/07/11 07:22:53;;;;;;;4.43;3.90;;;;;;;35.00;48.53;99863.75;5093522;28;20102;-82
2023/07/11 07:25:19;;;;;;;3.60;3.30;;;;;;;36.44;47.66;99869.25;5092475;28;20058;-82
2023/07/11 07:27:45;;;;;;;6.60;3.80;;;;;;;37.40;45.50;99867.03;5092322;28;20020;-81
2023/07/11 07:30:11;;;;;;;3.97;3.55;;;;;;;37.79;45.07;99853.59;5091465;28;20076;-81
2023/07/11 07:32:37;;;;;;;4.40;3.83;;;;;;;38.55;44.11;99853.25;5091852;28;20433;-82
2023/07/11 07:35:03;;;;;;;5.05;3.70;;;;;;;39.25;43.21;99868.09;5092736;28;20477;-81
2023/07/11 07:37:28;;;;;;;4.00;3.63;;;;;;;39.47;43.35;99855.25;5093044;28;20082;-81
2023/07/11 07:39:53;;;;;;;4.55;3.13;;;;;;;40.78;42.61;99853.09;5093334;28;20023;-81
2023/07/11 07:42:19;;;;;;;3.50;3.28;;;;;;;41.98;40.90;99844.72;5092494;28;20036;-81
2023/07/11 07:44:44;;;;;;;3.67;3.28;;;;;;;42.75;39.94;99841.91;5092830;28;20031;-82
2023/07/11 07:47:09;;;;;;;3.92;3.63;;;;;;;42.20;40.07;99836.22;5092048;28;20028;-81
2023/07/11 07:49:35;;;;;;;4.93;3.55;;;;;;;42.71;39.37;99855.31;5091650;28;20503;-81
2023/07/11 07:52:00;;;;;;;3.60;3.28;;;;;;;43.18;38.94;99839.53;5091904;28;20012;-81
2023/07/11 07:54:26;;;;;;;4.30;3.90;;;;;;;43.53;38.53;99838.50;5091668;28;20024;-81
2023/07/11 07:56:52;;;;;;;3.47;3.17;;;;;;;43.24;37.22;99843.91;5091649;28;20047;-81
2023/07/11 07:59:18;;;;;;;3.85;3.55;;;;;;;43.06;38.11;99837.94;5091248;28;20391;-81
2023/07/11 08:01:45;;;;;;;4.10;3.63;;;;;;;42.87;37.96;99849.81;5091382;28;20038;-82
2023/07/11 08:04:10;;;;;;;3.55;3.25;;;;;;;42.59;38.65;99833.69;5092385;28;20032;-81
2023/07/11 08:06:36;;;;;;;3.60;3.30;;;;;;;42.77;38.53;99839.69;5092677;28;20065;-81
2023/07/11 08:09:01;;;;;;;3.25;3.05;;;;;;;42.83;38.23;99836.66;5092712;28;20027;-81
2023/07/11 08:11:27;;;;;;;3.53;3.22;;;;;;;42.76;37.57;99824.34;5092642;28;20028;-81
2023/07/11 08:13:52;;;;;;;3.60;3.30;;;;;;;42.70;37.81;99839.19;5092753;28;20024;-81
2023/07/11 08:16:18;;;;;;;3.50;3.20;;;;;;;41.98;37.34;99836.53;5091858;28;20016;-81
2023/07/11 08:18:44;;;;;;;4.30;3.30;;;;;;;40.58;38.90;99818.31;5091547;28;20047;-81
2023/07/11 08:21:10;;;;;;;3.03;2.83;;;;;;;38.95;39.27;99825.78;5092385;28;20115;-81
2023/07/11 08:23:35;;;;;;;3.10;2.90;;;;;;;37.71;40.80;99832.25;5092012;28;20448;-81
2023/07/11 08:26:00;;;;;;;4.95;2.95;;;;;;;36.56;42.38;99822.31;5092229;28;20029;-81
2023/07/11 08:28:26;;;;;;;3.30;3.00;;;;;;;35.37;43.56;99817.69;5092229;28;20054;-81
2023/07/11 08:30:51;;;;;;;3.40;3.08;;;;;;;34.37;44.45;99826.06;5091647;28;20376;-81
2023/07/11 08:33:17;;;;;;;3.35;3.10;;;;;;;33.62;45.98;99812.47;5092089;28;20377;-81
2023/07/11 08:35:42;;;;;;;3.90;3.50;;;;;;;32.77;47.37;99815.31;5092444;28;20116;-81
2023/07/11 08:38:11;;;;;;;3.70;3.30;;;;;;;32.33;49.07;99821.41;5092778;28;20541;-80
2023/07/11 08:40:42;;;;;;;5.35;3.25;;;;;;;31.94;48.43;99817.69;5092246;28;20028;-81
2023/07/11 08:43:14;;;;;;;3.33;2.97;;;;;;;31.47;49.77;99819.41;5092224;28;20123;-80
2023/07/11 08:45:50;;;;;;;3.28;2.72;;;;;;;31.14;48.06;99813.91;5091930;28;20031;-80
2023/07/11 08:48:21;;;;;;;4.10;3.15;;;;;;;30.88;49.00;99808.41;5092466;28;20081;-80
2023/07/11 08:51:02;;;;;;;3.00;2.70;;;;;;;30.81;48.25;99830.72;5092241;28;20729;-80
2023/07/11 08:53:35;;;;;;;4.80;2.72;;;;;;;30.61;49.32;99815.47;5092857;28;20032;-80
2023/07/11 08:56:17;;;;;;;4.75;2.72;;;;;;;30.47;48.65;99809.19;5096634;28;20108;-80
2023/07/11 08:58:44;;;;;;;5.32;2.65;;;;;;;30.22;47.94;99819.53;5096328;28;20476;-80
2023/07/11 09:01:29;;;;;;;3.22;2.78;;;;;;;29.95;48.35;99816.59;5096490;28;20032;-79
2023/07/11 09:03:55;;;;;;;3.67;2.85;;;;;;;29.67;49.20;99794.25;5079772;28;20117;-80
2023/07/11 09:06:25;;;;;;;3.10;2.80;;;;;;;29.61;49.66;99789.63;5075204;28;20028;-81
2023/07/11 09:08:54;;;;;;;2.85;2.53;;;;;;;29.59;50.31;99789.81;5075727;28;20530;-81
2023/07/11 09:11:33;;;;;;;2.92;2.72;;;;;;;29.81;50.38;99802.22;5090408;28;20027;-81
2023/07/11 09:14:20;;;;;;;2.70;2.50;;;;;;;29.85;50.17;99801.84;5092583;28;20529;-81
2023/07/11 09:17:23;;;;;;;3.60;2.72;;;;;;;29.68;47.82;99795.91;5094613;28;20077;-80
2023/07/11 09:20:15;;;;;;;3.53;2.70;;;;;;;29.51;49.14;99798.78;5092563;28;20481;-81
2023/07/11 09:22:44;;;;;;;2.90;2.63;;;;;;;29.60;49.41;99798.69;5094402;28;20017;-81
2023/07/11 09:25:17;;;;;;;2.67;2.47;;;;;;;29.42;48.04;99786.53;5094333;28;20039;-80
2023/07/11 09:27:48;;;;;;;3.45;2.85;;;;;;;29.30;49.06;99761.22;5093857;28;20024;-80
2023/07/11 09:30:19;;;;;;;3.55;2.70;;;;;;;29.29;48.72;99759.56;5092704;28;20032;-81
2023/07/11 09:32:45;;;;;;;3.67;2.88;;;;;;;29.26;48.94;99770.66;5094647;28;20031;-81
2023/07/11 09:35:21;;;;;;;3.85;2.60;;;;;;;29.03;48.80;99752.88;5094796;28;20111;-81
2023/07/11 09:37:49;;;;;;;4.18;3.20;;;;;;;28.89;49.54;99750.19;5094796;28;20403;-81
2023/07/11 09:40:19;;;;;;;2.90;2.55;;;;;;;28.87;48.68;99773.69;5095153;28;20403;-82
2023/07/11 09:42:51;;;;;;;3.13;2.50;;;;;;;28.77;48.89;99768.56;5094904;28;20039;-82
2023/07/11 09:45:19;;;;;;;3.67;2.58;;;;;;;28.80;48.04;99770.91;5095331;28;20024;-81
2023/07/11 09:47:51;;;;;;;2.67;2.22;;;;;;;28.63;47.01;99761.38;5094802;28;20024;-82
2023/07/11 09:50:38;;;;;;;5.03;2.30;;;;;;;28.65;47.36;99781.59;5094929;28;20036;-81
2023/07/11 09:53:10;;;;;;;3.53;2.58;;;;;;;28.50;48.05;99759.38;5095294;28;20032;-82
2023/07/11 09:55:36;;;;;;;3.60;2.55;;;;;;;28.57;48.55;99779.88;5094145;28;20039;-81
2023/07/11 09:58:02;;;;;;;2.70;2.33;;;;;;;28.53;48.39;99761.69;5094970;28;20024;-82
2023/07/11 10:00:28;;;;;;;2.65;2.45;;;;;;;28.49;49.54;99757.72;5094801;28;20376;-81
2023/07/11 10:02:56;;;;;;;3.78;2.40;;;;;;;28.65;50.13;99762.03;5094303;28;20032;-81
2023/07/11 10:05:23;;;;;;;3.30;2.58;;;;;;;28.62;49.79;99749.84;5094020;28;20055;-82
2023/07/11 10:08:00;;;;;;;2.92;2.65;;;;;;;28.55;49.63;99743.56;5094398;28;20086;-81
2023/07/11 10:10:25;;;;;;;5.53;2.88;;;;;;;28.47;48.75;99741.78;5094500;28;20031;-81
2023/07/11 10:12:51;;;;;;;3.05;2.55;;;;;;;28.30;49.23;99767.06;5094073;28;20024;-80
2023/07/11 10:15:18;;;;;;;3.03;2.45;;;;;;;28.21;49.35;99744.06;5093921;28;20634;-79
2023/07/11 10:17:44;;;;;;;2.45;2.15;;;;;;;28.26;49.46;99741.66;5092779;28;20028;-80
2023/07/11 10:20:18;;;;;;;3.55;2.22;;;;;;;28.38;50.56;99747.44;5093404;28;20027;-81
2023/07/11 10:22:48;;;;;;;3.60;2.92;;;;;;;28.51;50.77;99737.72;5093676;28;20425;-80
2023/07/11 10:25:22;;;;;;;3.17;2.70;;;;;;;28.60;48.54;99743.81;5094285;28;20020;-80
2023/07/11 10:27:54;;;;;;;2.63;2.35;;;;;;;28.49;49.74;99750.50;5094016;28;20383;-80
2023/07/11 10:30:28;;;;;;;5.63;2.70;;;;;;;28.65;49.83;99753.97;5094531;28;20085;-80
2023/07/11 10:33:13;;;;;;;3.92;2.60;;;;;;;28.68;48.95;99762.50;5093877;28;20081;-80
2023/07/11 10:35:39;;;;;;;3.78;2.47;;;;;;;28.40;48.87;99740.91;5077184;28;20112;-80
2023/07/11 10:38:17;;;;;;;4.80;2.92;;;;;;;28.12;48.93;99734.47;5073609;28;20059;-80
2023/07/11 10:40:45;;;;;;;3.47;2.38;;;;;;;28.15;50.59;99734.06;5073785;28;20025;-80
2023/07/11 10:43:28;;;;;;;3.63;2.40;;;;;;;28.36;49.98;99750.31;5074187;28;20032;-80
2023/07/11 10:46:05;;;;;;;2.58;2.38;;;;;;;28.28;50.30;99723.59;5073686;28;20350;-81
2023/07/11 10:48:35;;;;;;;3.25;2.33;;;;;;;28.54;50.04;99734.69;5073939;28;20111;-81
2023/07/11 10:51:14;;;;;;;2.67;2.15;;;;;;;28.70;50.06;99739.03;5073364;28;20063;-80
2023/07/11 10:53:47;;;;;;;2.47;1.95;;;;;;;28.83;49.60;99735.69;5073597;28;20029;-81
2023/07/11 10:56:23;;;;;;;4.10;2.28;;;;;;;28.76;48.70;99732.06;5073645;28;20040;-81
2023/07/11 10:58:49;;;;;;;4.35;2.28;;;;;;;28.58;48.62;99716.41;5072840;28;20522;-81
2023/07/11 11:01:23;;;;;;;4.20;2.33;;;;;;;28.78;50.27;99730.88;5073372;28;20046;-81
2023/07/11 11:03:57;;;;;;;3.90;2.40;;;;;;;28.82;49.25;99723.28;5073339;28;20028;-81
2023/07/11 11:06:50;;;;;;;3.05;2.55;;;;;;;28.96;49.44;99727.81;5073352;28;20029;-80
2023/07/11 11:09:35;;;;;;;3.45;2.70;;;;;;;28.92;48.75;99723.81;5073354;28;20086;-80
2023/07/11 11:12:10;;;;;;;3.50;2.22;;;;;;;28.88;48.89;99717.19;5073511;28;20541;-81
2023/07/11 11:14:46;;;;;;;4.63;2.55;;;;;;;28.87;49.00;99701.28;5073240;28;20446;-81
2023/07/11 11:17:43;;;;;;;3.35;2.45;;;;;;;29.13;48.60;99716.88;5072587;28;20027;-80
2023/07/11 11:20:15;;;;;;;3.97;2.70;;;;;;;29.08;48.72;99696.00;5073225;28;20048;-81
2023/07/11 11:22:41;;;;;;;2.85;2.30;;;;;;;29.17;48.09;99713.63;5073031;28;20469;-81
2023/07/11 11:25:27;;;;;;;3.10;2.70;;;;;;;29.13;49.03;99680.16;5072857;28;20054;-81
2023/07/11 11:28:17;;;;;;;3.25;2.13;;;;;;;29.38;49.35;99703.91;5072812;28;20052;-81
2023/07/11 11:31:01;;;;;;;4.35;2.67;;;;;;;29.50;47.96;99705.91;5073417;28;20040;-81